sensor_id;sensor_type;location;lat;lon;timestamp;pressure;altitude;pressure_sealevel;temperature;humidity
46946;BME280;32679;40.810;14.498;2023-03-03T00:00:36;100031.13;;;8.54;100.00
46946;BME280;32679;40.810;14.498;2023-03-03T00:03:05;100030.31;;;8.53;100.00
46946;BME280;32679;40.810;14.498;2023-03-03T00:05:32;100033.97;;;8.42;100.00
46946;BME280;32679;40.810;14.498;2023-03-03T00:07:58;100028.41;;;8.42;100.00
46946;BME280;32679;40.810;14.498;2023-03-03T00:10:24;100019.72;;;8.43;100.00
46946;BME280;32679;40.810;14.498;2023-03-03T00:12:50;100009.44;;;8.44;100.00
46946;BME280;32679;40.810;14.498;2023-03-03T00:15:21;100011.50;;;8.47;100.00
46946;BME280;32679;40.810;14.498;2023-03-03T00:17:47;100002.53;;;8.65;100.00
46946;BME280;32679;40.810;14.498;2023-03-03T00:20:38;99985.97;;;8.53;100.00
46946;BME280;32679;40.810;14.498;2023-03-03T00:25:49;99992.09;;;8.47;100.00
46946;BME280;32679;40.810;14.498;2023-03-03T00:28:31;99987.06;;;8.36;100.00
46946;BME280;32679;40.810;14.498;2023-03-03T00:31:13;99978.97;;;8.31;100.00
46946;BME280;32679;40.810;14.498;2023-03-03T00:33:51;99967.66;;;8.24;100.00
46946;BME280;32679;40.810;14.498;2023-03-03T00:37:22;99970.81;;;8.23;100.00
46946;BME280;32679;40.810;14.498;2023-03-03T00:39:30;99968.16;;;8.14;100.00
46946;BME280;32679;40.810;14.498;2023-03-03T00:41:58;99963.19;;;8.20;100.00
46946;BME280;32679;40.810;14.498;2023-03-03T00:47:34;99963.22;;;8.07;100.00
46946;BME280;32679;40.810;14.498;2023-03-03T00:52:36;99953.25;;;7.91;100.00
46946;BME280;32679;40.810;14.498;2023-03-03T00:55:03;99968.69;;;7.92;100.00
46946;BME280;32679;40.810;14.498;2023-03-03T00:57:29;99965.25;;;7.95;100.00
46946;BME280;32679;40.810;14.498;2023-03-03T00:59:55;99969.63;;;7.96;100.00
46946;BME280;32679;40.810;14.498;2023-03-03T01:02:21;99978.53;;;7.89;100.00
46946;BME280;32679;40.810;14.498;2023-03-03T01:04:52;99979.69;;;7.76;100.00
46946;BME280;32679;40.810;14.498;2023-03-03T01:07:20;99978.19;;;7.78;100.00
46946;BME280;32679;40.810;14.498;2023-03-03T01:09:46;99970.00;;;7.70;100.00
46946;BME280;32679;40.810;14.498;2023-03-03T01:12:12;99966.19;;;7.74;100.00
46946;BME280;32679;40.810;14.498;2023-03-03T01:14:38;99974.38;;;7.83;100.00
46946;BME280;32679;40.810;14.498;2023-03-03T01:17:04;99963.41;;;7.86;100.00
46946;BME280;32679;40.810;14.498;2023-03-03T01:19:30;99960.28;;;7.88;100.00
46946;BME280;32679;40.810;14.498;2023-03-03T01:21:55;99964.59;;;7.73;100.00
46946;BME280;32679;40.810;14.498;2023-03-03T01:24:22;99958.34;;;7.76;100.00
46946;BME280;32679;40.810;14.498;2023-03-03T01:26:48;99956.53;;;7.68;100.00
46946;BME280;32679;40.810;14.498;2023-03-03T01:29:14;99964.84;;;7.68;100.00
46946;BME280;32679;40.810;14.498;2023-03-03T01:31:39;99960.44;;;7.67;100.00
46946;BME280;32679;40.810;14.498;2023-03-03T01:34:05;99964.84;;;7.68;100.00
46946;BME280;32679;40.810;14.498;2023-03-03T01:36:32;99948.47;;;7.63;100.00
46946;BME280;32679;40.810;14.498;2023-03-03T01:38:58;99947.66;;;7.63;100.00
46946;BME280;32679;40.810;14.498;2023-03-03T01:41:27;99952.47;;;7.66;100.00
46946;BME280;32679;40.810;14.498;2023-03-03T01:43:54;99945.22;;;7.61;100.00
46946;BME280;32679;40.810;14.498;2023-03-03T01:48:52;99941.88;;;7.55;100.00
46946;BME280;32679;40.810;14.498;2023-03-03T01:51:30;99948.72;;;7.46;100.00
46946;BME280;32679;40.810;14.498;2023-03-03T01:54:02;99950.19;;;7.43;100.00
46946;BME280;32679;40.810;14.498;2023-03-03T01:56:29;99944.88;;;7.50;100.00
46946;BME280;32679;40.810;14.498;2023-03-03T01:59:03;99935.78;;;7.50;100.00
46946;BME280;32679;40.810;14.498;2023-03-03T02:01:30;99928.19;;;7.47;100.00
46946;BME280;32679;40.810;14.498;2023-03-03T02:03:57;99916.97;;;7.43;100.00
46946;BME280;32679;40.810;14.498;2023-03-03T02:06:28;99910.66;;;7.43;100.00
46946;BME280;32679;40.810;14.498;2023-03-03T02:11:31;99922.63;;;7.47;100.00
46946;BME280;32679;40.810;14.498;2023-03-03T02:13:57;99921.59;;;7.39;100.00
46946;BME280;32679;40.810;14.498;2023-03-03T02:16:24;99925.16;;;7.40;100.00
46946;BME280;32679;40.810;14.498;2023-03-03T02:18:52;99929.47;;;7.25;100.00
46946;BME280;32679;40.810;14.498;2023-03-03T02:21:20;99935.81;;;7.25;100.00
46946;BME280;32679;40.810;14.498;2023-03-03T02:23:54;99909.75;;;7.14;100.00
46946;BME280;32679;40.810;14.498;2023-03-03T02:26:25;99930.25;;;7.38;100.00
46946;BME280;32679;40.810;14.498;2023-03-03T02:28:51;99919.41;;;7.32;100.00
46946;BME280;32679;40.810;14.498;2023-03-03T02:31:19;99924.50;;;7.30;100.00
46946;BME280;32679;40.810;14.498;2023-03-03T02:33:48;99933.94;;;7.42;100.00
46946;BME280;32679;40.810;14.498;2023-03-03T02:36:19;99937.88;;;7.41;100.00
46946;BME280;32679;40.810;14.498;2023-03-03T02:38:47;99931.28;;;7.45;100.00
46946;BME280;32679;40.810;14.498;2023-03-03T02:41:25;99933.81;;;7.50;100.00
46946;BME280;32679;40.810;14.498;2023-03-03T02:43:57;99911.13;;;7.32;100.00
46946;BME280;32679;40.810;14.498;2023-03-03T02:46:24;99925.72;;;7.45;100.00
46946;BME280;32679;40.810;14.498;2023-03-03T02:48:50;99932.31;;;7.53;100.00
46946;BME280;32679;40.810;14.498;2023-03-03T02:51:15;99927.47;;;7.50;100.00
46946;BME280;32679;40.810;14.498;2023-03-03T02:53:41;99922.84;;;7.54;100.00
46946;BME280;32679;40.810;14.498;2023-03-03T02:56:06;99926.06;;;7.56;100.00
46946;BME280;32679;40.810;14.498;2023-03-03T02:58:36;99923.28;;;7.56;100.00
46946;BME280;32679;40.810;14.498;2023-03-03T03:01:02;99922.38;;;7.64;100.00
46946;BME280;32679;40.810;14.498;2023-03-03T03:03:28;99911.28;;;7.64;100.00
46946;BME280;32679;40.810;14.498;2023-03-03T03:05:53;99909.00;;;7.54;100.00
46946;BME280;32679;40.810;14.498;2023-03-03T03:08:19;99899.78;;;7.50;100.00
46946;BME280;32679;40.810;14.498;2023-03-03T03:10:44;99911.56;;;7.47;100.00
46946;BME280;32679;40.810;14.498;2023-03-03T03:13:10;99907.84;;;7.55;100.00
46946;BME280;32679;40.810;14.498;2023-03-03T03:15:36;99909.31;;;7.65;100.00
46946;BME280;32679;40.810;14.498;2023-03-03T03:18:02;99911.91;;;7.57;100.00
46946;BME280;32679;40.810;14.498;2023-03-03T03:20:28;99916.63;;;7.45;100.00
46946;BME280;32679;40.810;14.498;2023-03-03T03:22:53;99916.88;;;7.40;100.00
46946;BME280;32679;40.810;14.498;2023-03-03T03:25:19;99910.66;;;7.43;100.00
46946;BME280;32679;40.810;14.498;2023-03-03T03:27:44;99914.09;;;7.40;100.00
46946;BME280;32679;40.810;14.498;2023-03-03T03:30:10;99911.22;;;7.24;100.00
46946;BME280;32679;40.810;14.498;2023-03-03T03:32:36;99912.53;;;7.14;100.00
46946;BME280;32679;40.810;14.498;2023-03-03T03:35:01;99907.31;;;7.13;100.00
46946;BME280;32679;40.810;14.498;2023-03-03T03:37:27;99911.38;;;7.15;100.00
46946;BME280;32679;40.810;14.498;2023-03-03T03:39:52;99902.13;;;7.23;100.00
46946;BME280;32679;40.810;14.498;2023-03-03T03:42:18;99910.41;;;7.23;100.00
46946;BME280;32679;40.810;14.498;2023-03-03T03:44:44;99909.97;;;7.21;100.00
46946;BME280;32679;40.810;14.498;2023-03-03T03:47:09;99909.75;;;7.14;100.00
46946;BME280;32679;40.810;14.498;2023-03-03T03:49:35;99907.44;;;7.16;100.00
46946;BME280;32679;40.810;14.498;2023-03-03T03:52:00;99910.00;;;7.09;100.00
46946;BME280;32679;40.810;14.498;2023-03-03T03:54:26;99901.22;;;7.07;100.00
46946;BME280;32679;40.810;14.498;2023-03-03T03:56:52;99895.22;;;7.05;100.00
46946;BME280;32679;40.810;14.498;2023-03-03T03:59:19;99905.38;;;7.01;100.00
46946;BME280;32679;40.810;14.498;2023-03-03T04:01:44;99904.22;;;6.90;100.00
46946;BME280;32679;40.810;14.498;2023-03-03T04:04:12;99901.00;;;6.88;100.00
46946;BME280;32679;40.810;14.498;2023-03-03T04:06:38;99904.91;;;6.99;100.00
46946;BME280;32679;40.810;14.498;2023-03-03T04:09:05;99908.81;;;6.86;100.00
46946;BME280;32679;40.810;14.498;2023-03-03T04:11:31;99906.53;;;6.88;100.00
46946;BME280;32679;40.810;14.498;2023-03-03T04:13:56;99905.13;;;6.81;100.00
46946;BME280;32679;40.810;14.498;2023-03-03T04:16:22;99922.28;;;6.75;100.00
46946;BME280;32679;40.810;14.498;2023-03-03T04:18:49;99916.44;;;6.89;100.00
46946;BME280;32679;40.810;14.498;2023-03-03T04:21:15;99920.94;;;6.93;100.00
46946;BME280;32679;40.810;14.498;2023-03-03T04:23:41;99911.34;;;6.78;100.00
46946;BME280;32679;40.810;14.498;2023-03-03T04:26:08;99917.69;;;6.91;100.00
46946;BME280;32679;40.810;14.498;2023-03-03T04:28:33;99914.25;;;6.82;100.00
46946;BME280;32679;40.810;14.498;2023-03-03T04:30:59;99919.41;;;6.71;100.00
46946;BME280;32679;40.810;14.498;2023-03-03T04:33:25;99916.28;;;6.73;100.00
46946;BME280;32679;40.810;14.498;2023-03-03T04:35:50;99903.50;;;6.68;100.00
46946;BME280;32679;40.810;14.498;2023-03-03T04:38:16;99903.63;;;6.72;100.00
46946;BME280;32679;40.810;14.498;2023-03-03T04:40:42;99903.25;;;6.61;100.00
46946;BME280;32679;40.810;14.498;2023-03-03T04:43:08;99904.63;;;6.55;100.00
46946;BME280;32679;40.810;14.498;2023-03-03T04:45:34;99904.97;;;6.66;100.00
46946;BME280;32679;40.810;14.498;2023-03-03T04:47:59;99910.75;;;6.61;100.00
46946;BME280;32679;40.810;14.498;2023-03-03T04:50:25;99918.75;;;6.41;100.00
46946;BME280;32679;40.810;14.498;2023-03-03T04:52:50;99907.34;;;6.43;100.00
46946;BME280;32679;40.810;14.498;2023-03-03T04:55:16;99909.66;;;6.41;100.00
46946;BME280;32679;40.810;14.498;2023-03-03T04:57:42;99909.06;;;6.35;100.00
46946;BME280;32679;40.810;14.498;2023-03-03T05:00:09;99906.34;;;6.47;100.00
46946;BME280;32679;40.810;14.498;2023-03-03T05:02:37;99914.03;;;6.42;100.00
46946;BME280;32679;40.810;14.498;2023-03-03T05:05:04;99912.81;;;6.51;100.00
46946;BME280;32679;40.810;14.498;2023-03-03T05:07:29;99916.81;;;6.54;100.00
46946;BME280;32679;40.810;14.498;2023-03-03T05:09:55;99910.97;;;6.55;100.00
46946;BME280;32679;40.810;14.498;2023-03-03T05:12:20;99914.19;;;6.70;100.00
46946;BME280;32679;40.810;14.498;2023-03-03T05:14:48;99909.84;;;6.69;100.00
46946;BME280;32679;40.810;14.498;2023-03-03T05:17:13;99876.75;;;6.48;100.00
46946;BME280;32679;40.810;14.498;2023-03-03T05:19:39;99888.28;;;6.62;100.00
46946;BME280;32679;40.810;14.498;2023-03-03T05:22:05;99888.28;;;6.62;100.00
46946;BME280;32679;40.810;14.498;2023-03-03T05:24:30;99893.13;;;6.65;100.00
46946;BME280;32679;40.810;14.498;2023-03-03T05:26:56;99898.91;;;6.72;100.00
46946;BME280;32679;40.810;14.498;2023-03-03T05:29:23;99890.47;;;6.69;100.00
46946;BME280;32679;40.810;14.498;2023-03-03T05:31:49;99894.41;;;6.80;100.00
46946;BME280;32679;40.810;14.498;2023-03-03T05:34:14;99901.75;;;6.76;100.00
46946;BME280;32679;40.810;14.498;2023-03-03T05:36:40;99899.00;;;6.76;100.00
46946;BME280;32679;40.810;14.498;2023-03-03T05:39:05;99887.84;;;6.72;100.00
46946;BME280;32679;40.810;14.498;2023-03-03T05:41:32;99862.13;;;6.60;100.00
46946;BME280;32679;40.810;14.498;2023-03-03T05:44:01;99884.50;;;6.79;100.00
46946;BME280;32679;40.810;14.498;2023-03-03T05:46:27;99897.75;;;6.86;100.00
46946;BME280;32679;40.810;14.498;2023-03-03T05:48:52;99887.16;;;7.00;100.00
46946;BME280;32679;40.810;14.498;2023-03-03T05:51:18;99875.16;;;6.96;100.00
46946;BME280;32679;40.810;14.498;2023-03-03T05:53:43;99889.22;;;7.27;100.00
46946;BME280;32679;40.810;14.498;2023-03-03T05:56:09;99867.16;;;7.43;100.00
46946;BME280;32679;40.810;14.498;2023-03-03T05:58:34;99886.41;;;7.52;100.00
46946;BME280;32679;40.810;14.498;2023-03-03T06:01:00;99892.63;;;7.49;100.00
46946;BME280;32679;40.810;14.498;2023-03-03T06:03:25;99894.72;;;7.52;100.00
46946;BME280;32679;40.810;14.498;2023-03-03T06:05:51;99901.06;;;7.52;100.00
46946;BME280;32679;40.810;14.498;2023-03-03T06:08:16;99900.59;;;7.50;100.00
46946;BME280;32679;40.810;14.498;2023-03-03T06:10:42;99902.44;;;7.58;100.00
46946;BME280;32679;40.810;14.498;2023-03-03T06:13:07;99901.72;;;7.61;100.00
46946;BME280;32679;40.810;14.498;2023-03-03T06:15:33;99905.75;;;7.64;100.00
46946;BME280;32679;40.810;14.498;2023-03-03T06:17:58;99905.97;;;7.71;100.00
46946;BME280;32679;40.810;14.498;2023-03-03T06:20:24;99913.69;;;7.78;100.00
46946;BME280;32679;40.810;14.498;2023-03-03T06:22:49;99919.56;;;7.88;100.00
46946;BME280;32679;40.810;14.498;2023-03-03T06:25:15;99920.69;;;7.87;100.00
46946;BME280;32679;40.810;14.498;2023-03-03T06:27:40;99922.50;;;7.96;100.00
46946;BME280;32679;40.810;14.498;2023-03-03T06:30:06;99923.63;;;8.07;100.00
46946;BME280;32679;40.810;14.498;2023-03-03T06:32:32;99927.69;;;8.37;96.23
46946;BME280;32679;40.810;14.498;2023-03-03T06:34:57;99922.78;;;8.47;90.83
46946;BME280;32679;40.810;14.498;2023-03-03T06:37:23;99922.25;;;8.57;90.98
46946;BME280;32679;40.810;14.498;2023-03-03T06:39:48;99930.13;;;8.55;91.78
46946;BME280;32679;40.810;14.498;2023-03-03T06:42:15;99936.50;;;8.71;91.03
46946;BME280;32679;40.810;14.498;2023-03-03T06:44:42;99944.75;;;8.83;90.06
46946;BME280;32679;40.810;14.498;2023-03-03T06:47:08;99937.16;;;8.96;88.01
46946;BME280;32679;40.810;14.498;2023-03-03T06:49:33;99945.38;;;8.92;87.74
46946;BME280;32679;40.810;14.498;2023-03-03T06:52:00;99952.09;;;8.91;88.15
46946;BME280;32679;40.810;14.498;2023-03-03T06:54:27;99957.38;;;8.97;87.30
46946;BME280;32679;40.810;14.498;2023-03-03T06:56:57;99951.56;;;9.02;88.55
46946;BME280;32679;40.810;14.498;2023-03-03T06:59:23;99964.66;;;9.17;89.56
46946;BME280;32679;40.810;14.498;2023-03-03T07:01:49;99949.06;;;9.28;88.66
46946;BME280;32679;40.810;14.498;2023-03-03T07:06:44;99963.09;;;9.35;85.87
46946;BME280;32679;40.810;14.498;2023-03-03T07:09:30;99949.31;;;9.39;85.95
46946;BME280;32679;40.810;14.498;2023-03-03T07:12:08;99950.88;;;9.56;87.12
46946;BME280;32679;40.810;14.498;2023-03-03T07:14:41;99950.59;;;9.61;87.31
46946;BME280;32679;40.810;14.498;2023-03-03T07:17:15;99958.81;;;9.73;85.89
46946;BME280;32679;40.810;14.498;2023-03-03T07:19:42;99955.75;;;9.78;87.40
46946;BME280;32679;40.810;14.498;2023-03-03T07:22:17;99947.88;;;9.80;85.96
46946;BME280;32679;40.810;14.498;2023-03-03T07:24:50;99949.25;;;9.90;82.12
46946;BME280;32679;40.810;14.498;2023-03-03T07:27:30;99943.00;;;10.32;80.11
46946;BME280;32679;40.810;14.498;2023-03-03T07:30:32;99938.72;;;10.77;78.48
46946;BME280;32679;40.810;14.498;2023-03-03T07:32:57;99929.59;;;11.25;79.30
46946;BME280;32679;40.810;14.498;2023-03-03T07:35:43;99946.47;;;11.63;76.62
46946;BME280;32679;40.810;14.498;2023-03-03T07:40:53;99944.59;;;11.97;70.44
46946;BME280;32679;40.810;14.498;2023-03-03T07:48:43;99943.34;;;12.24;70.06
46946;BME280;32679;40.810;14.498;2023-03-03T07:51:36;99938.75;;;12.39;69.47
46946;BME280;32679;40.810;14.498;2023-03-03T07:54:26;99940.41;;;12.10;66.33
46946;BME280;32679;40.810;14.498;2023-03-03T07:57:14;99915.91;;;12.26;68.32
46946;BME280;32679;40.810;14.498;2023-03-03T08:05:35;99941.31;;;12.55;66.63
46946;BME280;32679;40.810;14.498;2023-03-03T08:13:13;99933.06;;;13.06;61.48
46946;BME280;32679;40.810;14.498;2023-03-03T08:15:44;99946.97;;;13.44;61.62
46946;BME280;32679;40.810;14.498;2023-03-03T08:18:43;99953.72;;;14.01;61.11
46946;BME280;32679;40.810;14.498;2023-03-03T08:23:37;99954.75;;;14.59;60.23
46946;BME280;32679;40.810;14.498;2023-03-03T08:26:02;99955.66;;;14.95;57.21
46946;BME280;32679;40.810;14.498;2023-03-03T08:28:28;99955.66;;;15.16;55.70
46946;BME280;32679;40.810;14.498;2023-03-03T08:30:57;99958.06;;;15.07;53.84
46946;BME280;32679;40.810;14.498;2023-03-03T08:33:23;99922.81;;;15.56;53.89
46946;BME280;32679;40.810;14.498;2023-03-03T08:35:48;99945.94;;;16.17;52.05
46946;BME280;32679;40.810;14.498;2023-03-03T08:38:17;99948.28;;;16.30;49.43
46946;BME280;32679;40.810;14.498;2023-03-03T08:40:47;99947.47;;;16.29;48.16
46946;BME280;32679;40.810;14.498;2023-03-03T08:43:13;99947.44;;;16.43;49.05
46946;BME280;32679;40.810;14.498;2023-03-03T08:45:45;99949.22;;;15.98;49.92
46946;BME280;32679;40.810;14.498;2023-03-03T08:48:11;99944.47;;;15.63;51.41
46946;BME280;32679;40.810;14.498;2023-03-03T08:50:37;99935.22;;;14.80;52.39
46946;BME280;32679;40.810;14.498;2023-03-03T08:53:03;99938.84;;;14.91;51.59
46946;BME280;32679;40.810;14.498;2023-03-03T08:55:29;99944.63;;;14.26;54.78
46946;BME280;32679;40.810;14.498;2023-03-03T08:57:55;99943.94;;;13.74;55.12
46946;BME280;32679;40.810;14.498;2023-03-03T09:00:21;99938.94;;;13.42;57.30
46946;BME280;32679;40.810;14.498;2023-03-03T09:02:48;99930.75;;;13.19;57.36
46946;BME280;32679;40.810;14.498;2023-03-03T09:05:15;99928.09;;;13.30;59.17
46946;BME280;32679;40.810;14.498;2023-03-03T09:07:42;99920.56;;;12.93;58.75
46946;BME280;32679;40.810;14.498;2023-03-03T09:10:10;99921.78;;;12.96;60.80
46946;BME280;32679;40.810;14.498;2023-03-03T09:12:44;99924.69;;;12.66;61.30
46946;BME280;32679;40.810;14.498;2023-03-03T09:15:27;99916.34;;;12.69;61.22
46946;BME280;32679;40.810;14.498;2023-03-03T09:17:56;99918.56;;;12.90;60.13
46946;BME280;32679;40.810;14.498;2023-03-03T09:22:59;99917.50;;;12.65;59.66
46946;BME280;32679;40.810;14.498;2023-03-03T09:25:41;99915.22;;;12.77;60.62
46946;BME280;32679;40.810;14.498;2023-03-03T09:28:30;99913.28;;;12.44;60.04
46946;BME280;32679;40.810;14.498;2023-03-03T09:30:58;99901.38;;;12.47;60.87
46946;BME280;32679;40.810;14.498;2023-03-03T09:33:30;99897.34;;;12.41;60.80
46946;BME280;32679;40.810;14.498;2023-03-03T09:36:27;99873.06;;;12.12;59.66
46946;BME280;32679;40.810;14.498;2023-03-03T09:38:53;99889.31;;;12.40;61.61
46946;BME280;32679;40.810;14.498;2023-03-03T09:49:34;99894.16;;;12.43;59.41
46946;BME280;32679;40.810;14.498;2023-03-03T09:55:28;99874.78;;;12.20;59.26
46946;BME280;32679;40.810;14.498;2023-03-03T10:04:24;99877.81;;;12.41;58.70
46946;BME280;32679;40.810;14.498;2023-03-03T10:07:10;99879.75;;;12.41;59.67
46946;BME280;32679;40.810;14.498;2023-03-03T10:12:37;99838.09;;;12.18;58.70
46946;BME280;32679;40.810;14.498;2023-03-03T10:18:05;99870.09;;;12.72;58.03
46946;BME280;32679;40.810;14.498;2023-03-03T10:26:54;99881.19;;;13.05;57.54
46946;BME280;32679;40.810;14.498;2023-03-03T10:32:34;99876.34;;;13.02;56.27
46946;BME280;32679;40.810;14.498;2023-03-03T10:35:28;99886.13;;;13.23;54.43
46946;BME280;32679;40.810;14.498;2023-03-03T10:40:45;99862.53;;;13.86;52.79
46946;BME280;32679;40.810;14.498;2023-03-03T10:48:57;99891.19;;;15.45;48.96
46946;BME280;32679;40.810;14.498;2023-03-03T10:57:33;99885.06;;;16.00;44.58
46946;BME280;32679;40.810;14.498;2023-03-03T11:00:26;99878.09;;;17.41;43.11
46946;BME280;32679;40.810;14.498;2023-03-03T11:05:54;99879.44;;;16.00;41.91
46946;BME280;32679;40.810;14.498;2023-03-03T11:08:44;99878.78;;;15.17;44.15
46946;BME280;32679;40.810;14.498;2023-03-03T11:13:50;99871.59;;;15.20;45.65
46946;BME280;32679;40.810;14.498;2023-03-03T11:19:30;99808.38;;;15.08;42.70
46946;BME280;32679;40.810;14.498;2023-03-03T11:22:27;99848.06;;;16.27;41.37
46946;BME280;32679;40.810;14.498;2023-03-03T11:25:26;99846.66;;;15.83;40.96
46946;BME280;32679;40.810;14.498;2023-03-03T11:28:13;99846.78;;;15.15;42.53
46946;BME280;32679;40.810;14.498;2023-03-03T11:42:00;99854.75;;;14.49;44.46
46946;BME280;32679;40.810;14.498;2023-03-03T11:49:55;99845.09;;;14.28;44.56
46946;BME280;32679;40.810;14.498;2023-03-03T11:55:08;99842.72;;;14.34;44.94
46946;BME280;32679;40.810;14.498;2023-03-03T12:00:42;99837.13;;;14.34;45.16
46946;BME280;32679;40.810;14.498;2023-03-03T12:03:29;99834.78;;;14.50;44.67
46946;BME280;32679;40.810;14.498;2023-03-03T12:06:21;99833.91;;;14.42;44.69
46946;BME280;32679;40.810;14.498;2023-03-03T12:11:31;99818.00;;;14.82;43.47
46946;BME280;32679;40.810;14.498;2023-03-03T12:14:26;99825.19;;;14.87;43.69
46946;BME280;32679;40.810;14.498;2023-03-03T12:17:01;99822.78;;;14.96;43.38
46946;BME280;32679;40.810;14.498;2023-03-03T12:19:49;99813.19;;;14.97;42.48
46946;BME280;32679;40.810;14.498;2023-03-03T12:22:30;99808.75;;;15.25;42.48
46946;BME280;32679;40.810;14.498;2023-03-03T12:25:08;99809.88;;;15.52;42.42
46946;BME280;32679;40.810;14.498;2023-03-03T12:30:40;99805.72;;;15.96;41.44
46946;BME280;32679;40.810;14.498;2023-03-03T12:33:31;99806.22;;;16.46;40.94
46946;BME280;32679;40.810;14.498;2023-03-03T12:42:05;99801.56;;;16.22;39.87
46946;BME280;32679;40.810;14.498;2023-03-03T12:47:28;99799.50;;;15.28;39.76
46946;BME280;32679;40.810;14.498;2023-03-03T12:55:52;99790.41;;;14.70;42.17
46946;BME280;32679;40.810;14.498;2023-03-03T12:58:59;99786.78;;;14.62;45.01
46946;BME280;32679;40.810;14.498;2023-03-03T13:09:53;99781.16;;;14.98;44.80
46946;BME280;32679;40.810;14.498;2023-03-03T13:12:45;99782.00;;;14.70;45.34
46946;BME280;32679;40.810;14.498;2023-03-03T13:25:50;99769.56;;;14.92;44.56
46946;BME280;32679;40.810;14.498;2023-03-03T13:30:55;99763.59;;;14.62;44.17
46946;BME280;32679;40.810;14.498;2023-03-03T13:33:28;99759.97;;;14.58;44.87
46946;BME280;32679;40.810;14.498;2023-03-03T13:38:56;99760.72;;;14.26;44.01
46946;BME280;32679;40.810;14.498;2023-03-03T13:41:38;99755.91;;;14.16;44.54
46946;BME280;32679;40.810;14.498;2023-03-03T13:44:43;99743.59;;;14.60;44.46
46946;BME280;32679;40.810;14.498;2023-03-03T13:55:41;99728.31;;;14.00;44.34
46946;BME280;32679;40.810;14.498;2023-03-03T13:58:29;99734.75;;;14.15;43.99
46946;BME280;32679;40.810;14.498;2023-03-03T14:01:13;99730.38;;;14.18;44.05
46946;BME280;32679;40.810;14.498;2023-03-03T14:04:05;99725.13;;;14.05;44.40
46946;BME280;32679;40.810;14.498;2023-03-03T14:06:34;99730.75;;;14.27;44.46
46946;BME280;32679;40.810;14.498;2023-03-03T14:11:46;99721.56;;;14.01;45.16
46946;BME280;32679;40.810;14.498;2023-03-03T14:14:27;99730.72;;;13.87;46.13
46946;BME280;32679;40.810;14.498;2023-03-03T14:17:03;99731.50;;;13.81;46.02
46946;BME280;32679;40.810;14.498;2023-03-03T14:22:18;99737.00;;;13.63;46.51
46946;BME280;32679;40.810;14.498;2023-03-03T14:25:13;99734.94;;;13.42;46.65
46946;BME280;32679;40.810;14.498;2023-03-03T14:27:40;99736.81;;;13.20;47.74
46946;BME280;32679;40.810;14.498;2023-03-03T14:33:01;99733.41;;;12.79;48.99
46946;BME280;32679;40.810;14.498;2023-03-03T14:35:39;99729.31;;;12.66;49.49
46946;BME280;32679;40.810;14.498;2023-03-03T14:38:20;99722.97;;;12.69;49.78
46946;BME280;32679;40.810;14.498;2023-03-03T14:40:48;99722.53;;;12.67;50.22
46946;BME280;32679;40.810;14.498;2023-03-03T14:43:25;99714.66;;;12.79;50.60
46946;BME280;32679;40.810;14.498;2023-03-03T14:45:53;99718.22;;;12.76;50.64
46946;BME280;32679;40.810;14.498;2023-03-03T14:48:24;99717.00;;;12.74;50.76
46946;BME280;32679;40.810;14.498;2023-03-03T14:50:52;99717.31;;;12.62;51.62
46946;BME280;32679;40.810;14.498;2023-03-03T14:53:33;99712.59;;;12.69;51.09
46946;BME280;32679;40.810;14.498;2023-03-03T14:56:35;99717.38;;;12.72;50.99
46946;BME280;32679;40.810;14.498;2023-03-03T14:59:22;99708.59;;;12.70;51.67
46946;BME280;32679;40.810;14.498;2023-03-03T15:04:41;99697.31;;;12.52;51.65
46946;BME280;32679;40.810;14.498;2023-03-03T15:09:59;99702.91;;;12.56;52.45
46946;BME280;32679;40.810;14.498;2023-03-03T15:12:35;99695.34;;;12.53;52.43
46946;BME280;32679;40.810;14.498;2023-03-03T15:15:16;99698.97;;;12.61;52.30
46946;BME280;32679;40.810;14.498;2023-03-03T15:17:44;99694.91;;;12.47;51.79
46946;BME280;32679;40.810;14.498;2023-03-03T15:21:15;99678.94;;;12.48;52.36
46946;BME280;32679;40.810;14.498;2023-03-03T15:23:55;99672.22;;;12.52;51.74
46946;BME280;32679;40.810;14.498;2023-03-03T15:26:51;99677.91;;;12.70;51.68
46946;BME280;32679;40.810;14.498;2023-03-03T15:32:12;99679.84;;;12.63;51.74
46946;BME280;32679;40.810;14.498;2023-03-03T15:40:13;99660.00;;;12.82;50.77
46946;BME280;32679;40.810;14.498;2023-03-03T15:42:55;99657.22;;;12.82;51.21
46946;BME280;32679;40.810;14.498;2023-03-03T15:48:49;99658.50;;;12.95;51.89
46946;BME280;32679;40.810;14.498;2023-03-03T15:56:51;99632.13;;;12.85;51.95
46946;BME280;32679;40.810;14.498;2023-03-03T16:02:24;99645.25;;;12.81;53.37
46946;BME280;32679;40.810;14.498;2023-03-03T16:05:02;99645.28;;;12.85;53.55
46946;BME280;32679;40.810;14.498;2023-03-03T16:07:45;99642.44;;;12.78;53.82
46946;BME280;32679;40.810;14.498;2023-03-03T16:19:06;99616.78;;;12.51;54.28
46946;BME280;32679;40.810;14.498;2023-03-03T16:27:13;99641.06;;;12.43;53.53
46946;BME280;32679;40.810;14.498;2023-03-03T16:29:58;99639.09;;;12.51;54.12
46946;BME280;32679;40.810;14.498;2023-03-03T16:32:30;99651.03;;;12.44;54.87
46946;BME280;32679;40.810;14.498;2023-03-03T16:35:22;99644.56;;;12.33;54.79
46946;BME280;32679;40.810;14.498;2023-03-03T16:40:29;99635.66;;;12.13;55.80
46946;BME280;32679;40.810;14.498;2023-03-03T16:43:19;99641.50;;;11.97;56.64
46946;BME280;32679;40.810;14.498;2023-03-03T16:45:47;99633.97;;;12.01;56.25
46946;BME280;32679;40.810;14.498;2023-03-03T16:49:00;99637.16;;;12.03;56.67
46946;BME280;32679;40.810;14.498;2023-03-03T16:57:10;99639.81;;;11.86;58.11
46946;BME280;32679;40.810;14.498;2023-03-03T17:02:41;99642.41;;;11.71;59.47
46946;BME280;32679;40.810;14.498;2023-03-03T17:05:28;99640.81;;;11.70;60.10